EST,Max TemperatureF,Mean TemperatureF,Min TemperatureF,Max Dew PointF,MeanDew PointF,Min DewpointF,Max Humidity, Mean Humidity, Min Humidity, Max Sea Level PressureIn, Mean Sea Level PressureIn, Min Sea Level PressureIn, Max VisibilityMiles, Mean VisibilityMiles, Min VisibilityMiles, Max Wind SpeedMPH, Mean Wind SpeedMPH, Max Gust SpeedMPH,PrecipitationIn, CloudCover, Events, WindDirDegrees
2013-2-1,14,8,3,9,6,-2,92,84,73,30.03,29.98,29.81,10,5,0,16,6,18,0.00,8,Snow,263
2013-2-2,12,2,-7,7,-1,-9,92,80,67,30.02,29.99,29.95,10,8,1,14,7,,0.00,6,Snow,266
2013-2-3,15,4,-7,12,2,-11,92,82,72,29.95,29.83,29.74,10,6,1,16,7,24,0.00,7,Snow,236
2013-2-4,15,2,-11,7,0,-17,92,82,62,29.94,29.90,29.86,10,6,1,16,7,18,0.00,6,Snow,236
2013-2-5,21,8,-5,18,7,-9,92,82,68,29.95,29.77,29.65,10,6,0,14,6,23,0.00,7,Snow,264
2013-2-6,19,10,0,14,7,-4,93,82,63,30.21,30.13,29.96,10,6,1,12,3,,0.00,7,Snow,230
2013-2-7,15,14,12,14,11,9,93,87,79,30.22,30.19,30.16,10,6,2,13,8,17,0.00,8,Snow,48
2013-2-8,21,10,-2,12,9,-6,93,82,63,30.37,30.27,30.17,10,10,4,10,7,,0.00,3,Snow,1
2013-2-9,24,6,-11,19,7,-15,93,84,68,30.37,30.28,30.11,10,10,4,14,4,18,0.00,4,Snow,150
2013-2-10,33,28,24,32,25,21,93,85,70,30.12,29.91,29.49,10,8,1,21,11,29,0.00,7,Snow,125
2013-2-11,37,30,24,36,30,19,100,93,80,29.71,29.41,29.29,10,4,1,32,12,41,0.00,8,Rain-Snow,213
2013-2-12,26,20,15,21,19,12,93,81,69,29.89,29.82,29.72,10,9,2,15,11,21,0.00,7,Snow,242
2013-2-13,37,26,15,28,22,16,100,85,60,29.76,29.65,29.61,10,8,3,12,8,,0.00,4,,211
2013-2-14,32,26,21,30,24,16,100,90,74,29.83,29.67,29.61,10,3,0,18,4,28,0.00,8,Fog-Snow,326
2013-2-15,19,12,6,16,11,3,93,81,73,30.09,29.99,29.83,10,6,0,13,9,23,0.00,8,Snow,307
2013-2-16,14,6,-2,7,2,-6,92,80,62,30.12,30.07,30.02,10,8,1,12,6,16,0.00,6,Snow,359
2013-2-17,17,9,1,10,5,-2,92,80,53,30.14,30.10,30.02,10,8,1,14,3,16,0.00,6,Snow,150
2013-2-18,33,24,15,28,19,12,93,78,60,30.02,29.75,29.44,10,9,2,20,12,28,0.00,8,Snow,131
2013-2-19,33,22,10,32,21,7,100,90,80,29.83,29.42,29.16,7,2,0,18,9,30,0.00,8,Snow,327
2013-2-20,17,12,8,14,8,3,93,84,79,30.29,30.11,29.83,10,3,1,14,9,21,0.00,8,Snow,330
2013-2-21,21,14,6,16,11,3,93,87,79,30.43,30.36,30.29,10,8,2,12,6,17,0.00,6,Snow,8
2013-2-22,24,16,8,25,15,7,100,90,85,30.31,30.06,29.80,10,5,0,14,7,20,0.00,7,Snow,67
2013-2-23,30,24,17,27,23,16,100,91,80,29.81,29.76,29.73,10,6,0,13,3,,0.00,8,Fog-Snow,171
2013-2-24,32,23,14,28,23,10,100,91,80,30.11,29.97,29.81,10,9,0,13,3,10,0.00,7,Fog-Snow,302
2013-2-25,32,28,24,28,26,21,100,89,80,30.15,30.13,30.11,10,10,7,12,3,,0.00,8,,178
2013-2-26,32,29,26,28,26,23,93,88,80,30.16,30.05,29.88,10,10,7,17,5,23,0.00,7,,65
2013-2-27,33,30,26,30,27,21,100,89,80,29.88,29.77,29.72,10,8,1,14,10,23,0.00,7,Snow,18
2013-2-28,30,24,19,28,21,14,93,81,64,30.14,29.94,29.78,10,9,2,18,12,26,0.00,6,Snow,1